createdAt,value
2022-11-04T00:00:03.904Z,10.44
2022-11-04T00:01:03.980Z,10.44
2022-11-04T00:02:04.089Z,10.38
2022-11-04T00:03:03.909Z,10.44
2022-11-04T00:04:04.023Z,10.38
2022-11-04T00:05:04.090Z,10.44
2022-11-04T00:06:04.142Z,10.44
2022-11-04T00:07:04.152Z,10.44
2022-11-04T00:08:04.238Z,10.44
2022-11-04T00:09:04.233Z,10.44
2022-11-04T00:10:04.326Z,10.44
2022-11-04T00:11:04.328Z,10.44
2022-11-04T00:12:04.383Z,10.44
2022-11-04T00:13:04.308Z,10.44
2022-11-04T00:14:04.386Z,10.44
2022-11-04T00:15:03.506Z,10.44
2022-11-04T00:16:03.589Z,10.44
2022-11-04T00:17:03.576Z,10.44
2022-11-04T00:18:03.585Z,10.44
2022-11-04T00:19:03.753Z,10.44
2022-11-04T00:20:03.918Z,10.44
2022-11-04T00:21:03.835Z,10.44
2022-11-04T00:22:03.913Z,10.44
2022-11-04T00:23:03.836Z,10.44
2022-11-04T00:24:03.985Z,10.44
2022-11-04T00:25:03.909Z,10.44
2022-11-04T00:26:04.022Z,10.44
2022-11-04T00:27:04.094Z,10.38
2022-11-04T00:28:04.063Z,10.38
2022-11-04T00:29:04.069Z,10.44
2022-11-04T00:30:04.229Z,10.38
2022-11-04T00:31:04.232Z,10.38
2022-11-04T00:32:04.148Z,10.38
2022-11-04T00:33:04.146Z,10.38
2022-11-04T00:34:04.331Z,10.38
2022-11-04T00:35:04.335Z,10.38
2022-11-04T00:36:04.298Z,10.38
2022-11-04T00:37:04.299Z,10.38
2022-11-04T00:38:04.480Z,10.38
2022-11-04T00:39:04.382Z,10.44
2022-11-04T00:40:03.587Z,10.44
2022-11-04T00:41:03.593Z,10.44
2022-11-04T00:42:03.592Z,10.44
2022-11-04T00:43:03.502Z,10.50
2022-11-04T00:44:03.665Z,10.50
2022-11-04T00:45:03.666Z,10.50
2022-11-04T00:46:03.743Z,10.50
2022-11-04T00:47:03.828Z,10.50
2022-11-04T00:48:03.842Z,10.50
2022-11-04T00:49:03.844Z,10.50
2022-11-04T00:50:03.823Z,10.56
2022-11-04T00:51:03.892Z,10.56
2022-11-04T00:52:04.791Z,10.62
2022-11-04T00:53:03.977Z,10.62
2022-11-04T00:54:04.163Z,10.62
2022-11-04T00:55:04.158Z,10.69
2022-11-04T00:56:04.152Z,10.75
2022-11-04T00:57:04.152Z,10.75
2022-11-04T00:58:04.237Z,10.81
2022-11-04T00:59:04.473Z,10.88
2022-11-04T01:00:04.511Z,10.81
2022-11-04T01:01:04.448Z,10.81
2022-11-04T01:02:03.761Z,10.88
2022-11-04T01:03:03.496Z,10.88
2022-11-04T01:04:03.543Z,10.94
2022-11-04T01:05:03.579Z,10.94
2022-11-04T01:06:03.593Z,10.94
2022-11-04T01:07:03.664Z,10.94
2022-11-04T01:08:03.752Z,10.94
2022-11-04T01:09:03.738Z,11.00
2022-11-04T01:10:04.102Z,11.00
2022-11-04T01:11:04.384Z,11.06
2022-11-04T01:12:03.500Z,11.06
2022-11-04T01:13:03.671Z,11.12
2022-11-04T01:14:03.578Z,11.12
2022-11-04T01:15:03.660Z,11.12
2022-11-04T01:16:03.668Z,11.12
2022-11-04T01:17:03.664Z,11.19
2022-11-04T01:18:03.661Z,11.19
2022-11-04T01:19:03.758Z,11.19
2022-11-04T01:20:03.835Z,11.19
2022-11-04T01:21:03.841Z,11.25
2022-11-04T01:22:03.744Z,11.25
2022-11-04T01:23:03.820Z,11.25
2022-11-04T01:24:03.905Z,11.25
2022-11-04T01:25:04.018Z,11.25
2022-11-04T01:26:03.979Z,11.25
2022-11-04T01:27:04.146Z,11.25
2022-11-04T01:28:04.143Z,11.25
2022-11-04T01:29:04.249Z,11.25
2022-11-04T01:30:04.289Z,11.25
2022-11-04T01:31:04.302Z,11.31
2022-11-04T01:32:04.475Z,11.31
2022-11-04T01:33:03.532Z,11.31
2022-11-04T01:34:03.598Z,11.38
2022-11-04T01:35:03.594Z,11.38
2022-11-04T01:36:03.588Z,11.31
2022-11-04T01:37:03.585Z,11.31
2022-11-04T01:38:03.596Z,11.31
2022-11-04T01:39:03.516Z,11.31
2022-11-04T01:40:03.579Z,11.31
2022-11-04T01:41:03.664Z,11.38
2022-11-04T01:43:03.603Z,11.31
2022-11-04T01:44:03.751Z,11.38
2022-11-04T01:45:04.146Z,11.31
2022-11-04T01:46:04.232Z,11.38
2022-11-04T01:47:04.239Z,11.38
2022-11-04T01:48:04.255Z,11.38
2022-11-04T01:49:04.223Z,11.38
2022-11-04T01:50:04.334Z,11.31
2022-11-04T01:51:04.323Z,11.38
2022-11-04T01:52:04.383Z,11.38
2022-11-04T01:53:04.305Z,11.38
2022-11-04T01:54:04.390Z,11.38
2022-11-04T01:55:03.427Z,11.38
2022-11-04T01:56:03.592Z,11.38
2022-11-04T01:57:03.748Z,11.38
2022-11-04T01:58:03.828Z,11.38
2022-11-04T01:59:03.820Z,11.38
2022-11-04T02:00:03.906Z,11.38
2022-11-04T02:01:03.986Z,11.44
2022-11-04T02:02:04.011Z,11.44
2022-11-04T02:03:03.989Z,11.44
2022-11-04T02:04:03.994Z,11.44
2022-11-04T02:05:03.984Z,11.44
2022-11-04T02:06:03.989Z,11.44
2022-11-04T02:07:03.991Z,11.44
2022-11-04T02:08:04.100Z,11.44
2022-11-04T02:09:04.235Z,11.44
2022-11-04T02:10:04.177Z,11.44
2022-11-04T02:11:04.396Z,11.44
2022-11-04T02:12:04.313Z,11.44
2022-11-04T02:13:04.221Z,11.44
2022-11-04T02:14:04.223Z,11.44
2022-11-04T02:15:04.134Z,11.44
2022-11-04T02:16:04.318Z,11.44
2022-11-04T02:17:04.326Z,11.44
2022-11-04T02:18:04.313Z,11.44
2022-11-04T02:19:04.317Z,11.50
2022-11-04T02:20:04.336Z,11.50
2022-11-04T02:21:04.302Z,11.50
2022-11-04T02:22:04.400Z,11.50
2022-11-04T02:23:04.395Z,11.50
2022-11-04T02:24:04.311Z,11.50
2022-11-04T02:25:04.331Z,11.50
2022-11-04T02:26:04.310Z,11.50
2022-11-04T02:27:04.324Z,11.56
2022-11-04T02:28:04.304Z,11.56
2022-11-04T02:29:03.745Z,11.56
2022-11-04T02:30:03.768Z,11.56
2022-11-04T02:31:03.744Z,11.56
2022-11-04T02:32:03.749Z,11.56
2022-11-04T02:33:03.824Z,11.56
2022-11-04T02:34:03.824Z,11.62
2022-11-04T02:35:03.908Z,11.62
2022-11-04T02:36:03.819Z,11.56
2022-11-04T02:37:03.818Z,11.56
2022-11-04T02:38:03.910Z,11.56
2022-11-04T02:39:04.222Z,11.56
2022-11-04T02:40:04.305Z,11.62
2022-11-04T02:41:04.390Z,11.56
2022-11-04T02:42:04.390Z,11.62
2022-11-04T02:43:04.379Z,11.62
2022-11-04T02:44:04.327Z,11.62
2022-11-04T02:45:04.467Z,11.62
2022-11-04T02:46:04.477Z,11.62
2022-11-04T02:47:04.478Z,11.62
2022-11-04T02:48:03.508Z,11.62
2022-11-04T02:49:03.494Z,11.62
2022-11-04T02:50:03.705Z,11.69
2022-11-04T02:51:03.665Z,11.62
2022-11-04T02:52:04.068Z,11.62
2022-11-04T02:53:04.066Z,11.62
2022-11-04T02:54:04.145Z,11.62
2022-11-04T02:55:04.304Z,11.62
2022-11-04T02:56:04.310Z,11.62
2022-11-04T02:57:03.505Z,11.62
2022-11-04T02:58:04.485Z,11.69
2022-11-04T02:59:04.462Z,11.62
2022-11-04T03:00:04.471Z,11.69
2022-11-04T03:01:03.556Z,11.69
2022-11-04T03:02:03.720Z,11.69
2022-11-04T03:03:03.597Z,11.69
2022-11-04T03:04:03.694Z,11.69
2022-11-04T03:05:03.581Z,11.69
2022-11-04T03:06:03.616Z,11.69
2022-11-04T03:07:03.599Z,11.62
2022-11-04T03:08:03.666Z,11.62
2022-11-04T03:09:03.664Z,11.62
2022-11-04T03:10:03.658Z,11.62
2022-11-04T03:11:03.742Z,11.62
2022-11-04T03:12:03.768Z,11.62
2022-11-04T03:13:04.062Z,11.62
2022-11-04T03:14:04.076Z,11.62
2022-11-04T03:15:03.918Z,11.62
2022-11-04T03:16:03.849Z,11.62
2022-11-04T03:17:04.306Z,11.62
2022-11-04T03:18:04.479Z,11.62
2022-11-04T03:19:03.499Z,11.62
2022-11-04T03:20:03.594Z,11.62
2022-11-04T03:21:03.601Z,11.62
2022-11-04T03:22:03.584Z,11.62
2022-11-04T03:23:04.469Z,11.62
2022-11-04T03:24:04.475Z,11.62
2022-11-04T03:25:03.505Z,11.62
2022-11-04T03:26:03.499Z,11.62
2022-11-04T03:27:03.586Z,11.62
2022-11-04T03:28:03.675Z,11.62
2022-11-04T03:29:03.671Z,11.62
2022-11-04T03:30:03.834Z,11.62
2022-11-04T03:31:03.750Z,11.62
2022-11-04T03:32:03.740Z,11.62
2022-11-04T03:33:03.751Z,11.62
2022-11-04T03:34:03.758Z,11.62
2022-11-04T03:35:03.750Z,11.62
2022-11-04T03:36:03.911Z,11.62
2022-11-04T03:37:03.979Z,11.62
2022-11-04T03:38:03.984Z,11.62
2022-11-04T03:39:03.983Z,11.62
2022-11-04T03:40:04.008Z,11.62
2022-11-04T03:41:03.995Z,11.62
2022-11-04T03:42:04.079Z,11.62
2022-11-04T03:43:03.997Z,11.62
2022-11-04T03:44:04.075Z,11.62
2022-11-04T03:45:03.997Z,11.62
2022-11-04T03:46:04.066Z,11.62
2022-11-04T03:47:04.090Z,11.56
2022-11-04T03:48:04.064Z,11.56
2022-11-04T03:49:04.141Z,11.56
2022-11-04T03:50:04.152Z,11.56
2022-11-04T03:51:04.153Z,11.56
2022-11-04T03:52:04.150Z,11.56
2022-11-04T03:53:04.282Z,11.56
2022-11-04T03:54:04.159Z,11.56
2022-11-04T03:55:04.314Z,11.56
2022-11-04T03:56:04.225Z,11.56
2022-11-04T03:57:04.313Z,11.56
2022-11-04T03:58:04.223Z,11.56
2022-11-04T03:59:04.308Z,11.56
2022-11-04T04:00:04.459Z,11.56
2022-11-04T04:01:04.531Z,11.56
2022-11-04T04:02:04.497Z,11.56
2022-11-04T04:03:04.464Z,11.56
2022-11-04T04:04:04.475Z,11.56
2022-11-04T04:05:03.499Z,11.56
2022-11-04T04:06:03.587Z,11.50
2022-11-04T04:07:03.589Z,11.50
2022-11-04T04:08:03.677Z,11.50
2022-11-04T04:09:03.686Z,11.50
2022-11-04T04:10:03.663Z,11.50
2022-11-04T04:11:03.599Z,11.50
2022-11-04T04:12:03.603Z,11.50
2022-11-04T04:13:03.757Z,11.50
2022-11-04T04:14:04.235Z,11.50
2022-11-04T04:15:04.234Z,11.44
2022-11-04T04:16:04.156Z,11.50
2022-11-04T04:17:04.266Z,11.50
2022-11-04T04:18:04.303Z,11.44
2022-11-04T04:19:04.346Z,11.44
2022-11-04T04:20:04.301Z,11.44
2022-11-04T04:21:04.374Z,11.44
2022-11-04T04:22:04.310Z,11.44
2022-11-04T04:23:04.312Z,11.44
2022-11-04T04:24:04.397Z,11.44
2022-11-04T04:25:06.643Z,11.44
2022-11-04T04:26:03.766Z,11.44
2022-11-04T04:27:03.752Z,11.44
2022-11-04T04:28:03.749Z,11.44
2022-11-04T04:29:03.746Z,11.44
2022-11-04T04:30:03.824Z,11.44
2022-11-04T04:31:03.902Z,11.44
2022-11-04T04:32:03.836Z,11.44
2022-11-04T04:33:04.031Z,11.44
2022-11-04T04:34:03.979Z,11.44
2022-11-04T04:35:04.072Z,11.44
2022-11-04T04:36:04.144Z,11.44
2022-11-04T04:37:04.060Z,11.44
2022-11-04T04:38:04.231Z,11.44
2022-11-04T04:39:04.150Z,11.44
2022-11-04T04:40:04.224Z,11.44
2022-11-04T04:41:04.391Z,11.44
2022-11-04T04:42:04.310Z,11.44
2022-11-04T04:43:04.302Z,11.44
2022-11-04T04:44:03.518Z,11.44
2022-11-04T04:45:03.548Z,11.44
2022-11-04T04:46:03.603Z,11.44
2022-11-04T04:47:03.430Z,11.44
2022-11-04T04:48:03.590Z,11.44
2022-11-04T04:49:03.587Z,11.44
2022-11-04T04:50:03.743Z,11.44
2022-11-04T04:51:03.740Z,11.38
2022-11-04T04:52:03.746Z,11.44
2022-11-04T04:53:03.826Z,11.44
2022-11-04T04:54:03.831Z,11.44
2022-11-04T04:55:03.740Z,11.44
2022-11-04T04:56:03.826Z,11.44
2022-11-04T04:57:03.748Z,11.44
2022-11-04T04:58:03.738Z,11.44
2022-11-04T04:59:03.820Z,11.44
2022-11-04T05:00:03.920Z,11.44
2022-11-04T05:01:03.993Z,11.44
2022-11-04T05:02:03.944Z,11.44
2022-11-04T05:03:03.822Z,11.38
2022-11-04T05:04:03.911Z,11.38
2022-11-04T05:05:03.963Z,11.38
2022-11-04T05:06:03.984Z,11.38
2022-11-04T05:07:03.987Z,11.38
2022-11-04T05:08:04.066Z,11.38
2022-11-04T05:09:03.989Z,11.38
2022-11-04T05:10:04.067Z,11.38
2022-11-04T05:11:04.080Z,11.38
2022-11-04T05:12:03.988Z,11.38
2022-11-04T05:13:04.390Z,11.38
2022-11-04T05:14:04.465Z,11.38
2022-11-04T05:15:04.384Z,11.38
2022-11-04T05:16:03.904Z,11.38
2022-11-04T05:17:03.991Z,11.38
2022-11-04T05:18:04.074Z,11.38
2022-11-04T05:19:03.986Z,11.38
2022-11-04T05:20:04.062Z,11.38
2022-11-04T05:21:04.142Z,11.38
2022-11-04T05:22:04.072Z,11.38
2022-11-04T05:23:03.977Z,11.38
2022-11-04T05:24:04.073Z,11.38
2022-11-04T05:25:04.338Z,11.38
2022-11-04T05:26:04.390Z,11.38
2022-11-04T05:27:04.402Z,11.38
2022-11-04T05:28:04.460Z,11.38
2022-11-04T05:29:03.559Z,11.38
2022-11-04T05:30:03.598Z,11.38
2022-11-04T05:31:03.594Z,11.38
2022-11-04T05:32:03.500Z,11.38
2022-11-04T05:33:04.925Z,11.31
2022-11-04T05:34:03.663Z,11.31
2022-11-04T05:35:03.755Z,11.31
2022-11-04T05:36:03.859Z,11.31
2022-11-04T05:37:03.754Z,11.31
2022-11-04T05:38:03.742Z,11.31
2022-11-04T05:39:03.868Z,11.31
2022-11-04T05:40:03.989Z,11.31
2022-11-04T05:41:03.979Z,11.31
2022-11-04T05:42:04.066Z,11.31
2022-11-04T05:43:04.071Z,11.31
2022-11-04T05:44:04.070Z,11.31
2022-11-04T05:45:04.138Z,11.31
2022-11-04T05:46:04.222Z,11.31
2022-11-04T05:47:04.309Z,11.31
2022-11-04T05:48:04.315Z,11.25
2022-11-04T05:49:04.312Z,11.25
2022-11-04T05:50:04.311Z,11.25
2022-11-04T05:51:03.743Z,11.25
2022-11-04T05:52:03.988Z,11.25
2022-11-04T05:53:03.916Z,11.25
2022-11-04T05:54:03.993Z,11.25
2022-11-04T05:55:04.077Z,11.25
2022-11-04T05:56:04.076Z,11.25
2022-11-04T05:57:04.143Z,11.25
2022-11-04T05:58:04.205Z,11.19
2022-11-04T05:59:04.080Z,11.19
2022-11-04T06:00:04.079Z,11.19
2022-11-04T06:01:03.990Z,11.19
2022-11-04T06:02:04.181Z,11.19
2022-11-04T06:03:04.123Z,11.19
2022-11-04T06:04:04.000Z,11.19
2022-11-04T06:05:03.907Z,11.19
2022-11-04T06:06:04.081Z,11.12
2022-11-04T06:07:04.067Z,11.12
2022-11-04T06:08:04.236Z,11.12
2022-11-04T06:09:04.147Z,11.12
2022-11-04T06:10:04.300Z,11.12
2022-11-04T06:11:04.226Z,11.12
2022-11-04T06:12:04.387Z,11.12
2022-11-04T06:13:04.384Z,11.12
2022-11-04T06:14:03.508Z,11.12
2022-11-04T06:15:04.470Z,11.12
2022-11-04T06:16:03.589Z,11.12
2022-11-04T06:17:03.660Z,11.12
2022-11-04T06:18:03.512Z,11.12
2022-11-04T06:19:05.977Z,11.12
2022-11-04T06:20:03.501Z,11.12
2022-11-04T06:21:03.496Z,11.12
2022-11-04T06:22:03.589Z,11.12
2022-11-04T06:23:03.585Z,11.12
2022-11-04T06:24:03.583Z,11.12
2022-11-04T06:25:03.669Z,11.12
2022-11-04T06:26:03.672Z,11.12
2022-11-04T06:27:03.677Z,11.12
2022-11-04T06:28:03.835Z,11.12
2022-11-04T06:29:03.759Z,11.12
2022-11-04T06:30:04.238Z,11.12
2022-11-04T06:31:04.393Z,11.12
2022-11-04T06:32:04.394Z,11.12
2022-11-04T06:33:04.397Z,11.12
2022-11-04T06:34:04.480Z,11.12
2022-11-04T06:35:03.601Z,11.12
2022-11-04T06:36:03.586Z,11.12
2022-11-04T06:37:03.671Z,11.12
2022-11-04T06:38:03.496Z,11.12
2022-11-04T06:39:04.827Z,11.12
2022-11-04T06:40:03.587Z,11.12
2022-11-04T06:42:04.139Z,11.12
2022-11-04T06:43:03.984Z,11.12
2022-11-04T06:44:03.982Z,11.12
2022-11-04T06:45:03.905Z,11.12
2022-11-04T06:46:04.888Z,11.12
2022-11-04T06:47:04.001Z,11.12
2022-11-04T06:48:03.996Z,11.12
2022-11-04T06:49:04.152Z,11.12
2022-11-04T06:50:04.138Z,11.12
2022-11-04T06:51:04.145Z,11.12
2022-11-04T06:52:04.224Z,11.12
2022-11-04T06:53:04.397Z,11.12
2022-11-04T06:54:04.495Z,11.12
2022-11-04T06:55:04.393Z,11.12
2022-11-04T06:56:04.481Z,11.12
2022-11-04T06:57:04.392Z,11.12
2022-11-04T06:58:03.524Z,11.12
2022-11-04T06:59:03.585Z,11.12
2022-11-04T07:00:03.656Z,11.12
2022-11-04T07:01:07.450Z,11.12
2022-11-04T07:02:03.646Z,11.12
2022-11-04T07:03:03.527Z,11.12
2022-11-04T07:04:03.590Z,11.06
2022-11-04T07:05:03.674Z,11.12
2022-11-04T07:06:03.666Z,11.12
2022-11-04T07:07:03.679Z,11.12
2022-11-04T07:08:03.673Z,11.12
2022-11-04T07:09:03.818Z,11.06
2022-11-04T07:10:03.746Z,11.12
2022-11-04T07:11:03.663Z,11.06
2022-11-04T07:12:03.764Z,11.06
2022-11-04T07:13:03.831Z,11.06
2022-11-04T07:14:03.766Z,11.06
2022-11-04T07:15:03.829Z,11.06
2022-11-04T07:16:03.837Z,11.06
2022-11-04T07:17:03.902Z,11.06
2022-11-04T07:18:03.825Z,11.06
2022-11-04T07:19:03.916Z,11.06
2022-11-04T07:20:03.989Z,11.06
2022-11-04T07:21:08.725Z,11.06
2022-11-04T07:22:04.072Z,11.06
2022-11-04T07:23:04.314Z,11.06
2022-11-04T07:24:04.227Z,11.00
2022-11-04T07:25:04.309Z,11.06
2022-11-04T07:26:04.386Z,11.00
2022-11-04T07:27:04.384Z,11.00
2022-11-04T07:28:04.385Z,11.00
2022-11-04T07:29:03.588Z,11.00
2022-11-04T07:30:03.426Z,11.06
2022-11-04T07:31:03.589Z,11.06
2022-11-04T07:32:03.595Z,11.00
2022-11-04T07:33:03.675Z,11.00
2022-11-04T07:34:03.670Z,11.00
2022-11-04T07:35:03.839Z,11.00
2022-11-04T07:36:03.828Z,11.06
2022-11-04T07:37:03.920Z,11.06
2022-11-04T07:38:03.828Z,11.06
2022-11-04T07:39:03.906Z,11.06
2022-11-04T07:40:04.072Z,11.06
2022-11-04T07:41:04.236Z,11.06
2022-11-04T07:42:04.330Z,11.06
2022-11-04T07:43:04.330Z,11.06
2022-11-04T07:44:04.307Z,11.06
2022-11-04T07:45:04.477Z,11.06
2022-11-04T07:46:04.474Z,11.06
2022-11-04T07:47:04.475Z,11.12
2022-11-04T07:48:03.672Z,11.12
2022-11-04T07:49:03.666Z,11.12
2022-11-04T07:50:08.067Z,11.12
2022-11-04T07:51:03.768Z,11.12
2022-11-04T07:52:03.827Z,11.12
2022-11-04T07:53:03.920Z,11.12
2022-11-04T07:54:03.984Z,11.12
2022-11-04T07:55:04.145Z,11.12
2022-11-04T07:56:04.342Z,11.12
2022-11-04T07:57:04.318Z,11.19
2022-11-04T07:58:04.155Z,11.12
2022-11-04T07:59:04.243Z,11.12
2022-11-04T08:00:04.505Z,11.12
2022-11-04T08:01:03.508Z,11.12
2022-11-04T08:02:03.701Z,11.12
2022-11-04T08:03:03.851Z,11.12
2022-11-04T08:04:03.748Z,11.12
2022-11-04T08:05:03.764Z,11.12
2022-11-04T08:06:03.746Z,11.12
2022-11-04T08:07:03.825Z,11.12
2022-11-04T08:08:04.003Z,11.12
2022-11-04T08:09:04.083Z,11.12
2022-11-04T08:10:04.078Z,11.12
2022-11-04T08:11:04.162Z,11.12
2022-11-04T08:12:04.152Z,11.12
2022-11-04T08:13:04.229Z,11.12
2022-11-04T08:14:04.392Z,11.12
2022-11-04T08:15:03.523Z,11.12
2022-11-04T08:16:03.435Z,11.12
2022-11-04T08:17:03.504Z,11.12
2022-11-04T08:18:03.908Z,11.12
2022-11-04T08:19:03.824Z,11.12
2022-11-04T08:20:03.987Z,11.19
2022-11-04T08:21:04.064Z,11.19
2022-11-04T08:22:04.241Z,11.19
2022-11-04T08:23:04.241Z,11.19
2022-11-04T08:24:04.391Z,11.19
2022-11-04T08:25:04.404Z,11.19
2022-11-04T08:26:04.381Z,11.19
2022-11-04T08:27:03.504Z,11.25
2022-11-04T08:28:03.592Z,11.25
2022-11-04T08:29:03.677Z,11.25
2022-11-04T08:30:03.668Z,11.25
2022-11-04T08:31:03.690Z,11.31
2022-11-04T08:32:03.666Z,11.31
2022-11-04T08:33:03.595Z,11.31
2022-11-04T08:34:03.593Z,11.31
2022-11-04T08:35:03.758Z,11.31
2022-11-04T08:36:03.668Z,11.38
2022-11-04T08:37:03.841Z,11.38
2022-11-04T08:38:03.910Z,11.38
2022-11-04T08:39:09.131Z,11.38
2022-11-04T08:40:03.827Z,11.44
2022-11-04T08:41:03.908Z,11.44
2022-11-04T08:42:04.996Z,11.44
2022-11-04T08:43:03.831Z,11.44
2022-11-04T08:44:03.919Z,11.50
2022-11-04T08:45:04.068Z,11.44
2022-11-04T08:46:04.069Z,11.44
2022-11-04T08:47:04.065Z,11.44
2022-11-04T08:48:05.590Z,11.50
2022-11-04T08:49:08.707Z,11.50
2022-11-04T08:50:04.150Z,11.50
2022-11-04T08:51:04.241Z,11.50
2022-11-04T08:52:04.156Z,11.50
2022-11-04T08:53:04.304Z,11.50
2022-11-04T08:54:04.228Z,11.50
2022-11-04T08:55:04.315Z,11.50
2022-11-04T08:56:04.312Z,11.50
2022-11-04T08:57:04.475Z,11.44
2022-11-04T08:58:04.474Z,11.44
2022-11-04T08:59:03.537Z,11.44
2022-11-04T09:00:03.529Z,11.44
2022-11-04T09:01:03.600Z,11.44
2022-11-04T09:02:03.623Z,11.44
2022-11-04T09:03:03.585Z,11.44
2022-11-04T09:04:03.655Z,11.44
2022-11-04T09:05:03.671Z,11.38
2022-11-04T09:06:03.762Z,11.38
2022-11-04T09:07:07.779Z,11.38
2022-11-04T09:08:03.837Z,11.38
2022-11-04T09:09:03.934Z,11.38
2022-11-04T09:10:03.747Z,11.38
2022-11-04T09:11:03.834Z,11.38
2022-11-04T09:12:03.756Z,11.38
2022-11-04T09:13:03.842Z,11.38
2022-11-04T09:14:03.842Z,11.38
2022-11-04T09:15:03.904Z,11.38
2022-11-04T09:16:03.905Z,11.31
2022-11-04T09:17:03.828Z,11.31
2022-11-04T09:18:03.908Z,11.31
2022-11-04T09:19:03.931Z,11.31
2022-11-04T09:20:03.928Z,11.31
2022-11-04T09:21:03.912Z,11.31
2022-11-04T09:22:03.989Z,11.31
2022-11-04T09:23:03.822Z,11.31
2022-11-04T09:24:03.984Z,11.31
2022-11-04T09:25:04.068Z,11.31
2022-11-04T09:26:03.911Z,11.31
2022-11-04T09:27:03.900Z,11.25
2022-11-04T09:28:03.996Z,11.31
2022-11-04T09:29:03.991Z,11.25
2022-11-04T09:30:03.996Z,11.31
2022-11-04T09:31:03.914Z,11.25
2022-11-04T09:32:03.915Z,11.25
2022-11-04T09:33:03.990Z,11.25
2022-11-04T09:34:03.995Z,11.25
2022-11-04T09:35:04.232Z,11.19
2022-11-04T09:36:04.161Z,11.19
2022-11-04T09:37:04.334Z,11.19
2022-11-04T09:38:04.406Z,11.19
2022-11-04T09:39:04.387Z,11.19
2022-11-04T09:40:04.385Z,11.19
2022-11-04T09:41:03.513Z,11.12
2022-11-04T09:42:04.466Z,11.12
2022-11-04T09:43:03.453Z,11.12
2022-11-04T09:44:04.463Z,11.12
2022-11-04T09:45:22.692Z,11.12
2022-11-04T09:46:03.505Z,11.12
2022-11-04T09:47:03.588Z,11.12
2022-11-04T09:48:03.594Z,11.12
2022-11-04T09:49:03.600Z,11.12
2022-11-04T09:50:03.666Z,11.12
2022-11-04T09:51:03.592Z,11.06
2022-11-04T09:52:03.520Z,11.06
2022-11-04T09:53:03.509Z,11.06
2022-11-04T09:54:03.595Z,11.06
2022-11-04T09:55:03.594Z,11.06
2022-11-04T09:56:03.685Z,11.06
2022-11-04T09:57:03.747Z,11.06
2022-11-04T09:58:03.743Z,11.06
2022-11-04T09:59:03.587Z,11.06
2022-11-04T10:00:03.667Z,11.06
2022-11-04T10:01:03.829Z,11.06
2022-11-04T10:02:03.702Z,11.06
2022-11-04T10:03:03.664Z,11.06
2022-11-04T10:04:03.665Z,11.06
2022-11-04T10:05:03.664Z,11.06
2022-11-04T10:06:03.825Z,11.06
2022-11-04T10:07:03.828Z,11.06
2022-11-04T10:08:03.748Z,11.06
2022-11-04T10:09:03.903Z,11.06
2022-11-04T10:10:03.831Z,11.06
2022-11-04T10:11:03.828Z,11.06
2022-11-04T10:12:03.749Z,11.06
2022-11-04T10:13:03.751Z,11.06
2022-11-04T10:14:03.902Z,11.06
2022-11-04T10:15:03.840Z,11.06
2022-11-04T10:16:03.905Z,11.06
2022-11-04T10:17:04.062Z,11.06
2022-11-04T10:18:03.999Z,11.06
2022-11-04T10:19:04.086Z,11.06
2022-11-04T10:20:03.991Z,11.06
2022-11-04T10:21:04.068Z,11.06
2022-11-04T10:22:04.075Z,11.06
2022-11-04T10:23:03.996Z,11.12
2022-11-04T10:24:04.118Z,11.06
2022-11-04T10:25:04.156Z,11.06
2022-11-04T10:26:04.077Z,11.06
2022-11-04T10:27:03.981Z,11.06
2022-11-04T10:28:04.160Z,11.06
2022-11-04T10:29:03.999Z,11.06
2022-11-04T10:30:03.991Z,11.12
2022-11-04T10:31:04.072Z,11.06
2022-11-04T10:32:04.152Z,11.06
2022-11-04T10:33:04.315Z,11.06
2022-11-04T10:34:04.316Z,11.06
2022-11-04T10:35:04.235Z,11.12
2022-11-04T10:36:04.239Z,11.12
2022-11-04T10:37:04.301Z,11.12
2022-11-04T10:38:04.381Z,11.06
2022-11-04T10:39:04.470Z,11.12
2022-11-04T10:40:03.592Z,11.12
2022-11-04T10:41:07.180Z,11.12
2022-11-04T10:42:03.516Z,11.12
2022-11-04T10:43:03.533Z,11.12
2022-11-04T10:44:03.589Z,11.12
2022-11-04T10:45:03.579Z,11.12
2022-11-04T10:46:04.556Z,11.12
2022-11-04T10:47:03.505Z,11.12
2022-11-04T10:48:03.613Z,11.06
2022-11-04T10:49:03.603Z,11.06
2022-11-04T10:50:29.255Z,11.06
2022-11-04T10:51:03.668Z,11.06
2022-11-04T10:52:03.677Z,11.06
2022-11-04T10:53:03.598Z,11.06
2022-11-04T10:54:03.585Z,11.06
2022-11-04T10:55:03.757Z,11.06
2022-11-04T10:56:03.749Z,11.06
2022-11-04T10:57:03.942Z,11.06
2022-11-04T10:58:03.987Z,11.06
2022-11-04T10:59:04.065Z,11.06
2022-11-04T11:00:04.235Z,11.06
2022-11-04T11:01:04.243Z,11.06
2022-11-04T11:02:04.271Z,11.06
2022-11-04T11:03:04.392Z,11.06
2022-11-04T11:04:03.513Z,11.06
2022-11-04T11:05:03.596Z,11.06
2022-11-04T11:06:03.667Z,11.06
2022-11-04T11:07:03.764Z,11.06
2022-11-04T11:08:03.669Z,11.06
2022-11-04T11:09:03.751Z,11.06
2022-11-04T11:10:03.824Z,11.12
2022-11-04T11:11:03.838Z,11.12
2022-11-04T11:12:07.004Z,11.12
2022-11-04T11:13:03.673Z,11.12
2022-11-04T11:14:03.671Z,11.12
2022-11-04T11:15:03.763Z,11.12
2022-11-04T11:16:03.673Z,11.12
2022-11-04T11:17:03.755Z,11.12
2022-11-04T11:18:03.905Z,11.12
2022-11-04T11:19:03.995Z,11.19
2022-11-04T11:20:03.907Z,11.12
2022-11-04T11:21:03.827Z,11.19
2022-11-04T11:22:03.829Z,11.19
2022-11-04T11:23:05.085Z,11.19
2022-11-04T11:24:03.925Z,11.19
2022-11-04T11:25:03.912Z,11.19
2022-11-04T11:26:03.910Z,11.19
2022-11-04T11:27:04.089Z,11.19
2022-11-04T11:28:04.064Z,11.19
2022-11-04T11:29:03.913Z,11.19
2022-11-04T11:30:03.829Z,11.19
2022-11-04T11:31:03.907Z,11.19
2022-11-04T11:32:04.068Z,11.19
2022-11-04T11:33:04.151Z,11.19
2022-11-04T11:34:04.240Z,11.19
2022-11-04T11:35:06.579Z,11.25
2022-11-04T11:36:04.143Z,11.25
2022-11-04T11:37:04.221Z,11.25
2022-11-04T11:38:04.304Z,11.25
2022-11-04T11:39:04.401Z,11.25
2022-11-04T11:40:04.388Z,11.25
2022-11-04T11:41:23.675Z,11.25
2022-11-04T11:42:04.074Z,11.25
2022-11-04T11:43:04.159Z,11.25
2022-11-04T11:44:04.154Z,11.25
2022-11-04T11:45:04.143Z,11.25
2022-11-04T11:46:04.155Z,11.25
2022-11-04T11:47:04.156Z,11.25
2022-11-04T11:48:04.160Z,11.31
2022-11-04T11:49:04.144Z,11.31
2022-11-04T11:50:04.069Z,11.31
2022-11-04T11:51:04.062Z,11.31
2022-11-04T11:52:04.228Z,11.31
2022-11-04T11:53:04.149Z,11.38
2022-11-04T11:54:04.241Z,11.38
2022-11-04T11:55:04.234Z,11.38
2022-11-04T11:56:04.150Z,11.38
2022-11-04T11:57:13.589Z,11.38
2022-11-04T12:01:08.289Z,11.50
2022-11-04T12:02:04.601Z,11.50
2022-11-04T12:03:04.492Z,11.50
2022-11-04T12:06:19.244Z,11.56
2022-11-04T12:09:18.360Z,11.62
2022-11-04T12:10:07.003Z,11.62
2022-11-04T12:11:03.745Z,11.62
2022-11-04T12:12:03.835Z,11.69
2022-11-04T12:13:03.862Z,11.69
2022-11-04T12:14:03.843Z,11.69
2022-11-04T12:15:03.915Z,11.75
2022-11-04T12:16:03.921Z,11.75
2022-11-04T12:17:03.827Z,11.75
2022-11-04T12:18:03.906Z,11.81
2022-11-04T12:19:03.989Z,11.81
2022-11-04T12:20:04.149Z,11.81
2022-11-04T12:21:04.161Z,11.88
2022-11-04T12:22:04.228Z,11.88
2022-11-04T12:23:04.410Z,11.88
2022-11-04T12:24:04.409Z,11.88
2022-11-04T12:25:04.396Z,11.94
2022-11-04T12:26:04.463Z,11.94
2022-11-04T12:27:04.480Z,11.94
2022-11-04T12:28:04.312Z,11.94
2022-11-04T12:29:04.398Z,12.00
2022-11-04T12:30:04.488Z,12.00
2022-11-04T12:31:03.524Z,12.00
2022-11-04T12:32:03.593Z,12.00
2022-11-04T12:33:03.670Z,12.00
2022-11-04T12:34:03.747Z,12.00
2022-11-04T12:35:03.755Z,12.06
2022-11-04T12:36:03.826Z,12.06
2022-11-04T12:37:03.838Z,12.06
2022-11-04T12:38:03.852Z,12.06
2022-11-04T12:39:03.930Z,12.06
2022-11-04T12:40:04.601Z,12.06
2022-11-04T12:41:28.034Z,12.06
2022-11-04T12:42:20.890Z,12.06
2022-11-04T12:43:04.143Z,12.06
2022-11-04T12:44:04.382Z,12.06
2022-11-04T12:45:04.389Z,12.06
2022-11-04T12:46:04.384Z,12.06
2022-11-04T12:47:04.303Z,12.06
2022-11-04T12:48:03.760Z,12.06
2022-11-04T12:49:07.133Z,12.06
2022-11-04T12:50:03.833Z,12.06
2022-11-04T12:51:03.991Z,12.06
2022-11-04T12:52:03.909Z,12.06
2022-11-04T12:53:03.906Z,12.06
2022-11-04T12:54:04.065Z,12.12
2022-11-04T12:55:04.161Z,12.06
2022-11-04T12:56:03.688Z,12.06
2022-11-04T12:57:03.506Z,12.06
2022-11-04T12:58:03.775Z,12.06
2022-11-04T12:59:03.854Z,12.06
2022-11-04T13:00:03.906Z,12.12
2022-11-04T13:01:03.990Z,12.06